TimeCST,TemperatureF,Dew PointF,Humidity,Sea Level PressureIn,VisibilityMPH,Wind Direction,Wind SpeedMPH,Gust SpeedMPH,PrecipitationIn,Events,Conditions,WindDirDegrees,DateUTC
12:53 AM,34.0,28.9,82,30.38,10.0,NE,5.8,-,N/A,,Clear,40,2013-11-10 06:53:00
1:53 AM,33.1,28.0,82,30.38,10.0,NE,6.9,-,N/A,,Clear,50,2013-11-10 07:53:00
2:53 AM,34.0,28.0,79,30.38,10.0,East,4.6,-,N/A,,Clear,80,2013-11-10 08:53:00
3:53 AM,33.1,28.0,82,30.38,10.0,Calm,Calm,-,N/A,,Clear,0,2013-11-10 09:53:00
4:53 AM,35.1,27.0,72,30.38,10.0,ESE,6.9,-,N/A,,Clear,110,2013-11-10 10:53:00
5:53 AM,35.1,26.1,70,30.38,10.0,ESE,8.1,-,N/A,,Clear,110,2013-11-10 11:53:00
6:53 AM,34.0,26.1,73,30.38,10.0,ESE,6.9,-,N/A,,Clear,110,2013-11-10 12:53:00
7:53 AM,35.1,27.0,72,30.39,10.0,SE,10.4,-,N/A,,Clear,140,2013-11-10 13:53:00
8:53 AM,37.0,28.0,70,30.40,10.0,SSE,11.5,-,N/A,,Clear,150,2013-11-10 14:53:00
9:53 AM,39.9,28.0,63,30.40,10.0,SSE,12.7,-,N/A,,Clear,160,2013-11-10 15:53:00
10:53 AM,45.0,30.0,56,30.37,10.0,South,13.8,-,N/A,,Clear,170,2013-11-10 16:53:00
11:53 AM,48.0,30.9,52,30.34,10.0,South,13.8,-,N/A,,Clear,170,2013-11-10 17:53:00
12:53 PM,48.9,30.9,50,30.30,10.0,South,10.4,17.3,N/A,,Overcast,190,2013-11-10 18:53:00
1:53 PM,48.9,33.1,54,30.28,10.0,South,6.9,-,N/A,,Overcast,190,2013-11-10 19:53:00
2:53 PM,48.9,34.0,56,30.27,10.0,SSW,11.5,-,N/A,,Overcast,210,2013-11-10 20:53:00
3:53 PM,52.0,36.0,54,30.24,10.0,SSW,9.2,-,N/A,,Overcast,200,2013-11-10 21:53:00
4:53 PM,52.0,37.0,57,30.22,10.0,SSW,5.8,-,N/A,,Mostly Cloudy,200,2013-11-10 22:53:00
5:53 PM,48.9,37.0,64,30.22,10.0,South,4.6,-,N/A,,Partly Cloudy,180,2013-11-10 23:53:00
6:53 PM,46.9,37.0,68,30.22,10.0,South,5.8,-,N/A,,Clear,180,2013-11-11 00:53:00
7:53 PM,46.0,37.0,71,30.20,10.0,South,9.2,-,N/A,,Clear,170,2013-11-11 01:53:00
8:53 PM,44.1,37.0,76,30.19,10.0,South,6.9,-,N/A,,Clear,190,2013-11-11 02:53:00
9:53 PM,46.9,39.9,77,30.19,10.0,SSW,6.9,-,N/A,,Clear,200,2013-11-11 03:53:00
10:53 PM,46.0,39.9,79,30.17,10.0,SSW,6.9,-,N/A,,Clear,210,2013-11-11 04:53:00
11:53 PM,45.0,39.9,82,30.16,10.0,SSW,6.9,-,N/A,,Clear,200,2013-11-11 05:53:00